createdAt,value
2017-09-10T00:01:12.576Z,7.50
2017-09-10T00:03:40.940Z,8.73
2017-09-10T00:06:09.435Z,7.40
2017-09-10T00:08:37.828Z,10.00
2017-09-10T00:11:05.429Z,6.20
2017-09-10T00:13:33.023Z,9.13
2017-09-10T00:16:01.387Z,11.97
2017-09-10T00:18:29.091Z,6.47
2017-09-10T00:20:56.865Z,10.70
2017-09-10T00:23:24.464Z,8.63
2017-09-10T00:25:52.111Z,10.77
2017-09-10T00:28:19.705Z,7.37
2017-09-10T00:30:47.308Z,6.13
2017-09-10T00:33:14.903Z,8.17
2017-09-10T00:35:43.252Z,6.10
2017-09-10T00:38:10.852Z,10.17
2017-09-10T00:40:38.468Z,5.23
2017-09-10T00:43:06.851Z,7.43
2017-09-10T00:45:34.452Z,5.90
2017-09-10T00:48:02.116Z,9.47
2017-09-10T00:50:29.707Z,7.33
2017-09-10T00:52:58.383Z,6.77
2017-09-10T00:55:25.975Z,6.20
2017-09-10T00:57:54.332Z,6.63
2017-09-10T01:00:22.029Z,6.87
2017-09-10T01:02:49.623Z,7.70
2017-09-10T01:05:17.216Z,7.73
2017-09-10T01:07:44.909Z,7.43
2017-09-10T01:10:12.513Z,7.70
2017-09-10T01:12:40.118Z,8.37
2017-09-10T01:15:09.416Z,6.97
2017-09-10T01:17:37.815Z,5.30
2017-09-10T01:20:06.179Z,6.07
2017-09-10T01:22:35.447Z,6.00
2017-09-10T01:25:03.056Z,5.70
2017-09-10T01:27:32.264Z,5.37
2017-09-10T01:29:59.867Z,4.70
2017-09-10T01:32:28.256Z,9.03
2017-09-10T01:34:56.743Z,5.40
2017-09-10T01:37:24.344Z,6.90
2017-09-10T01:39:53.450Z,7.53
2017-09-10T01:42:21.099Z,6.37
2017-09-10T01:44:50.375Z,6.80
2017-09-10T01:47:18.068Z,4.73
2017-09-10T01:49:45.732Z,5.07
2017-09-10T01:52:14.218Z,7.67
2017-09-10T01:54:41.884Z,9.37
2017-09-10T01:57:09.481Z,6.17
2017-09-10T01:59:37.072Z,7.60
2017-09-10T02:02:04.686Z,4.43
2017-09-10T02:04:32.284Z,5.40
2017-09-10T02:06:59.885Z,6.57
2017-09-10T02:09:27.551Z,6.47
2017-09-10T02:11:55.217Z,5.87
2017-09-10T02:14:22.829Z,5.73
2017-09-10T02:16:50.428Z,6.13
2017-09-10T02:19:18.856Z,4.90
2017-09-10T02:21:46.484Z,6.63
2017-09-10T02:24:14.080Z,4.17
2017-09-10T02:26:41.676Z,7.67
2017-09-10T02:29:10.089Z,4.30
2017-09-10T02:31:37.733Z,5.13
2017-09-10T02:34:06.149Z,5.00
2017-09-10T02:36:33.748Z,4.10
2017-09-10T02:39:01.453Z,6.40
2017-09-10T02:41:29.120Z,6.67
2017-09-10T02:43:56.722Z,5.50
2017-09-10T02:46:24.392Z,5.37
2017-09-10T02:48:51.994Z,5.40
2017-09-10T02:51:19.605Z,5.33
2017-09-10T02:53:47.242Z,6.23
2017-09-10T02:56:14.838Z,4.83
2017-09-10T02:58:42.447Z,6.97
2017-09-10T03:01:10.817Z,5.13
2017-09-10T03:03:39.208Z,4.63
2017-09-10T03:06:07.600Z,5.40
2017-09-10T03:08:35.206Z,6.83
2017-09-10T03:11:02.808Z,4.70
2017-09-10T03:13:30.444Z,8.60
2017-09-10T03:15:58.040Z,8.27
2017-09-10T03:18:25.641Z,4.73
2017-09-10T03:20:53.240Z,5.43
2017-09-10T03:23:20.920Z,7.87
2017-09-10T03:25:49.312Z,6.63
2017-09-10T03:28:16.957Z,5.50
2017-09-10T03:30:44.589Z,7.73
2017-09-10T03:33:12.193Z,5.67
2017-09-10T03:35:39.845Z,5.33
2017-09-10T03:38:07.448Z,3.80
2017-09-10T03:40:35.114Z,7.77
2017-09-10T03:43:02.713Z,4.43
2017-09-10T03:45:30.339Z,4.77
2017-09-10T03:47:57.968Z,5.30
2017-09-10T03:50:25.565Z,9.67
2017-09-10T03:52:53.200Z,6.03
2017-09-10T03:55:20.806Z,10.03
2017-09-10T03:57:48.399Z,5.83
2017-09-10T04:00:16.911Z,8.70
2017-09-10T04:02:44.513Z,5.73
2017-09-10T04:05:12.214Z,6.07
2017-09-10T04:07:40.577Z,6.83
2017-09-10T04:10:08.953Z,5.30
2017-09-10T04:12:37.362Z,9.40
2017-09-10T04:15:05.026Z,3.83
2017-09-10T04:17:32.624Z,6.33
2017-09-10T04:20:00.328Z,5.97
2017-09-10T04:22:27.929Z,4.63
2017-09-10T04:24:55.573Z,6.93
2017-09-10T04:27:23.177Z,7.03
2017-09-10T04:29:50.781Z,6.00
2017-09-10T04:32:19.274Z,5.43
2017-09-10T04:34:46.933Z,5.00
2017-09-10T04:37:15.314Z,9.60
2017-09-10T04:39:42.911Z,5.90
2017-09-10T04:42:10.645Z,5.60
2017-09-10T04:44:38.242Z,8.43
2017-09-10T04:47:05.877Z,4.50
2017-09-10T04:49:33.489Z,5.43
2017-09-10T04:52:01.088Z,5.73
2017-09-10T04:54:29.468Z,5.80
2017-09-10T04:56:57.131Z,6.63
2017-09-10T04:59:24.732Z,5.60
2017-09-10T05:01:52.383Z,5.90
2017-09-10T05:04:20.074Z,11.67
2017-09-10T05:06:48.589Z,9.90
2017-09-10T05:09:16.952Z,14.50
2017-09-10T05:11:44.552Z,6.63
2017-09-10T05:14:12.194Z,15.30
2017-09-10T05:16:40.564Z,12.07
2017-09-10T05:19:09.628Z,14.80
2017-09-10T05:21:37.349Z,12.17
2017-09-10T05:24:04.952Z,26.40
2017-09-10T05:26:32.592Z,11.63
2017-09-10T05:29:00.192Z,17.97
2017-09-10T05:31:27.792Z,18.53
2017-09-10T05:33:55.428Z,14.70
2017-09-10T05:36:23.116Z,14.37
2017-09-10T05:38:50.756Z,17.53
2017-09-10T05:41:18.394Z,16.50
2017-09-10T05:43:46.113Z,13.47
2017-09-10T05:46:13.717Z,14.07
2017-09-10T05:48:41.436Z,23.70
2017-09-10T05:51:09.084Z,25.70
2017-09-10T05:53:37.455Z,31.30
2017-09-10T05:56:05.096Z,27.27
2017-09-10T05:58:32.708Z,28.97
2017-09-10T06:01:00.320Z,19.70
2017-09-10T06:03:27.988Z,18.53
2017-09-10T06:05:55.695Z,22.17
2017-09-10T06:08:23.303Z,17.70
2017-09-10T06:10:50.921Z,20.07
2017-09-10T06:13:18.528Z,17.50
2017-09-10T06:15:46.141Z,25.70
2017-09-10T06:18:13.758Z,37.53
2017-09-10T06:20:41.404Z,29.90
2017-09-10T06:23:09.020Z,28.83
2017-09-10T06:25:36.684Z,27.47
2017-09-10T06:28:05.672Z,34.47
2017-09-10T06:30:34.688Z,30.97
2017-09-10T06:33:03.684Z,28.07
2017-09-10T06:35:32.776Z,16.43
2017-09-10T06:38:01.767Z,24.70
2017-09-10T06:40:30.808Z,20.47
2017-09-10T06:42:59.763Z,22.47
2017-09-10T06:45:28.715Z,22.43
2017-09-10T06:47:57.711Z,16.30
2017-09-10T06:50:26.676Z,17.33
2017-09-10T06:52:55.772Z,21.63
2017-09-10T06:55:24.760Z,16.80
2017-09-10T06:57:53.833Z,19.87
2017-09-10T07:00:22.786Z,15.00
2017-09-10T07:02:51.834Z,11.67
2017-09-10T07:05:20.811Z,14.50
2017-09-10T07:07:49.767Z,15.87
2017-09-10T07:10:19.786Z,21.43
2017-09-10T07:12:48.745Z,20.07
2017-09-10T07:15:17.777Z,15.23
2017-09-10T07:17:46.849Z,14.63
2017-09-10T07:20:15.807Z,13.70
2017-09-10T07:22:44.764Z,12.23
2017-09-10T07:25:13.724Z,14.80
2017-09-10T07:27:42.675Z,19.17
2017-09-10T07:30:11.650Z,13.20
2017-09-10T07:32:40.664Z,14.27
2017-09-10T07:35:09.616Z,12.97
2017-09-10T07:37:38.561Z,9.83
2017-09-10T07:40:07.511Z,12.83
2017-09-10T07:42:36.539Z,12.13
2017-09-10T07:45:05.541Z,15.00
2017-09-10T07:47:34.504Z,10.20
2017-09-10T07:50:03.527Z,7.97
2017-09-10T07:52:32.522Z,17.37
2017-09-10T07:55:01.476Z,10.13
2017-09-10T07:57:30.444Z,13.43
2017-09-10T07:59:58.075Z,10.63
2017-09-10T08:02:25.830Z,10.70
2017-09-10T08:04:53.437Z,14.90
2017-09-10T08:07:21.056Z,11.30
2017-09-10T08:09:48.656Z,9.70
2017-09-10T08:12:16.304Z,10.43
2017-09-10T08:14:43.948Z,12.87
2017-09-10T08:17:11.549Z,13.60
2017-09-10T08:19:39.152Z,9.13
2017-09-10T08:22:06.812Z,19.40
2017-09-10T08:24:35.180Z,8.90
2017-09-10T08:27:03.547Z,9.20
2017-09-10T08:29:31.965Z,10.80
2017-09-10T08:31:59.640Z,16.40
2017-09-10T08:34:27.272Z,8.30
2017-09-10T08:36:55.644Z,12.97
2017-09-10T08:39:24.078Z,9.70
2017-09-10T08:41:51.724Z,6.53
2017-09-10T08:44:19.317Z,8.80
2017-09-10T08:46:46.920Z,8.50
2017-09-10T08:49:15.446Z,17.30
2017-09-10T08:51:43.048Z,16.43
2017-09-10T08:54:11.598Z,13.67
2017-09-10T08:56:39.206Z,11.57
2017-09-10T08:59:07.581Z,11.57
2017-09-10T09:01:35.988Z,8.80
2017-09-10T09:04:03.589Z,7.13
2017-09-10T09:06:31.808Z,5.23
2017-09-10T09:09:00.172Z,8.90
2017-09-10T09:11:28.587Z,7.13
2017-09-10T09:13:56.221Z,10.93
2017-09-10T09:16:24.591Z,10.30
2017-09-10T09:18:52.245Z,9.13
2017-09-10T09:21:19.856Z,17.07
2017-09-10T09:23:47.564Z,10.70
2017-09-10T09:26:15.275Z,15.40
2017-09-10T09:28:42.909Z,5.17
2017-09-10T09:31:10.553Z,5.37
2017-09-10T09:33:38.937Z,9.97
2017-09-10T09:36:06.549Z,5.20
2017-09-10T09:38:34.165Z,7.70
2017-09-10T09:41:01.772Z,4.20
2017-09-10T09:43:29.417Z,4.30
2017-09-10T09:45:57.804Z,4.63
2017-09-10T09:48:25.409Z,10.80
2017-09-10T09:50:53.006Z,4.30
2017-09-10T09:53:21.380Z,4.13
2017-09-10T09:55:48.979Z,5.43
2017-09-10T09:58:16.637Z,4.60
2017-09-10T10:00:44.236Z,5.20
2017-09-10T10:03:11.844Z,4.63
2017-09-10T10:05:40.212Z,5.13
2017-09-10T10:08:07.817Z,5.80
2017-09-10T10:10:35.455Z,6.10
2017-09-10T10:13:03.842Z,4.20
2017-09-10T10:15:31.439Z,4.20
2017-09-10T10:17:59.045Z,8.67
2017-09-10T10:20:26.713Z,4.27
2017-09-10T10:22:55.107Z,5.50
2017-09-10T10:25:22.768Z,10.47
2017-09-10T10:27:50.424Z,3.27
2017-09-10T10:30:18.796Z,6.80
2017-09-10T10:32:47.165Z,3.10
2017-09-10T10:35:15.608Z,4.07
2017-09-10T10:37:43.336Z,3.73
2017-09-10T10:40:10.940Z,4.13
2017-09-10T10:42:38.536Z,2.50
2017-09-10T10:45:06.910Z,3.30
2017-09-10T10:47:34.540Z,5.50
2017-09-10T10:50:02.192Z,4.70
2017-09-10T10:52:29.930Z,3.07
2017-09-10T10:54:57.554Z,3.00
2017-09-10T10:57:25.156Z,4.90
2017-09-10T10:59:52.819Z,3.43
2017-09-10T11:02:20.485Z,5.00
2017-09-10T11:04:48.140Z,4.50
2017-09-10T11:07:15.800Z,3.37
2017-09-10T11:09:44.213Z,4.43
2017-09-10T11:12:11.810Z,3.40
2017-09-10T11:14:39.448Z,3.67
2017-09-10T11:17:07.077Z,3.10
2017-09-10T11:19:34.675Z,2.47
2017-09-10T11:22:02.277Z,2.67
2017-09-10T11:24:30.773Z,2.53
2017-09-10T11:26:58.376Z,2.20
2017-09-10T11:29:25.977Z,6.77
2017-09-10T11:31:54.349Z,5.50
2017-09-10T11:34:21.959Z,3.73
2017-09-10T11:36:49.586Z,2.33
2017-09-10T11:39:17.966Z,3.17
2017-09-10T11:41:46.361Z,2.87
2017-09-10T11:44:13.964Z,4.77
2017-09-10T11:46:41.596Z,3.03
2017-09-10T11:49:09.198Z,6.93
2017-09-10T11:51:36.833Z,2.53
2017-09-10T11:54:04.482Z,3.37
2017-09-10T11:56:32.084Z,2.87
2017-09-10T11:58:59.689Z,2.40
2017-09-10T12:01:28.053Z,3.13
2017-09-10T12:03:56.428Z,2.60
2017-09-10T12:06:24.036Z,2.97
2017-09-10T12:08:51.714Z,2.40
2017-09-10T12:11:19.359Z,2.00
2017-09-10T12:13:47.000Z,2.60
2017-09-10T12:16:15.365Z,3.40
2017-09-10T12:18:43.784Z,2.30
2017-09-10T12:21:11.428Z,1.83
2017-09-10T12:23:39.038Z,2.80
2017-09-10T12:26:06.759Z,3.17
2017-09-10T12:28:34.360Z,2.30
2017-09-10T12:31:01.969Z,3.07
2017-09-10T12:33:30.376Z,2.40
2017-09-10T12:35:57.978Z,4.00
2017-09-10T12:38:25.589Z,2.97
2017-09-10T12:40:53.247Z,3.20
2017-09-10T12:43:20.909Z,2.30
2017-09-10T12:45:48.546Z,2.77
2017-09-10T12:48:16.917Z,3.60
2017-09-10T12:50:44.568Z,2.23
2017-09-10T12:53:12.168Z,2.10
2017-09-10T12:55:39.776Z,2.80
2017-09-10T12:58:07.382Z,1.90
2017-09-10T13:00:35.781Z,2.03
2017-09-10T13:03:03.414Z,2.13
2017-09-10T13:05:31.013Z,2.73
2017-09-10T13:07:58.669Z,1.70
2017-09-10T13:10:26.282Z,2.53
2017-09-10T13:12:53.930Z,2.20
2017-09-10T13:15:21.531Z,2.33
2017-09-10T13:17:49.937Z,1.80
2017-09-10T13:20:17.544Z,2.40
2017-09-10T13:22:45.145Z,1.70
2017-09-10T13:25:14.117Z,3.17
2017-09-10T13:27:41.765Z,2.70
2017-09-10T13:30:09.376Z,1.90
2017-09-10T13:32:36.980Z,2.00
2017-09-10T13:35:04.582Z,1.87
2017-09-10T13:37:32.948Z,2.27
2017-09-10T13:40:00.553Z,3.23
2017-09-10T13:42:28.160Z,1.70
2017-09-10T13:44:55.808Z,2.23
2017-09-10T13:47:23.528Z,1.97
2017-09-10T13:49:51.185Z,2.03
2017-09-10T13:52:19.576Z,3.20
2017-09-10T13:54:47.232Z,2.30
2017-09-10T13:57:14.892Z,3.43
2017-09-10T13:59:42.898Z,3.50
2017-09-10T14:02:10.501Z,1.60
2017-09-10T14:04:38.914Z,2.03
2017-09-10T14:07:06.569Z,1.60
2017-09-10T14:09:34.165Z,3.00
2017-09-10T14:12:01.774Z,2.47
2017-09-10T14:14:30.276Z,2.20
2017-09-10T14:16:57.877Z,4.63
2017-09-10T14:19:25.504Z,2.00
2017-09-10T14:21:53.148Z,2.30
2017-09-10T14:24:21.540Z,1.97
2017-09-10T14:26:49.214Z,1.50
2017-09-10T14:29:16.811Z,1.87
2017-09-10T14:31:44.445Z,2.90
2017-09-10T14:34:12.077Z,2.00
2017-09-10T14:36:40.449Z,1.90
2017-09-10T14:39:08.049Z,1.83
2017-09-10T14:41:35.648Z,1.83
2017-09-10T14:44:03.293Z,3.00
2017-09-10T14:46:31.708Z,1.33
2017-09-10T14:48:59.387Z,2.33
2017-09-10T14:51:26.988Z,1.73
2017-09-10T14:53:54.592Z,2.80
2017-09-10T14:56:22.964Z,4.30
2017-09-10T14:58:50.632Z,1.77
2017-09-10T15:01:18.233Z,3.10
2017-09-10T15:03:45.841Z,2.60
2017-09-10T15:06:13.450Z,5.80
2017-09-10T15:08:41.124Z,6.23
2017-09-10T15:11:08.729Z,6.67
2017-09-10T15:13:36.342Z,16.90
2017-09-10T15:16:03.941Z,7.87
2017-09-10T15:18:31.580Z,13.57
2017-09-10T15:20:59.305Z,15.03
2017-09-10T15:23:26.960Z,7.20
2017-09-10T15:25:54.560Z,9.20
2017-09-10T15:30:51.911Z,8.50
2017-09-10T15:33:19.620Z,3.10
2017-09-10T15:35:48.016Z,2.13
2017-09-10T15:38:15.709Z,2.10
2017-09-10T15:40:43.372Z,2.30
2017-09-10T15:43:11.020Z,2.90
2017-09-10T15:45:38.694Z,4.20
2017-09-10T15:48:06.362Z,3.07
2017-09-10T15:50:34.745Z,2.73
2017-09-10T15:53:02.340Z,8.67
2017-09-10T15:55:29.987Z,4.27
2017-09-10T15:57:57.592Z,5.20
2017-09-10T16:00:25.197Z,3.07
2017-09-10T16:02:52.801Z,5.43
2017-09-10T16:05:21.233Z,11.27
2017-09-10T16:07:48.863Z,9.47
2017-09-10T16:10:16.549Z,9.63
2017-09-10T16:12:44.216Z,7.43
2017-09-10T16:15:11.875Z,5.33
2017-09-10T16:17:39.477Z,8.53
2017-09-10T16:20:07.116Z,4.80
2017-09-10T16:22:34.764Z,5.77
2017-09-10T16:25:02.428Z,3.80
2017-09-10T16:27:30.090Z,7.67
2017-09-10T16:29:57.736Z,6.13
2017-09-10T16:32:25.452Z,5.60
2017-09-10T16:34:54.395Z,3.13
2017-09-10T16:37:23.412Z,5.17
2017-09-10T16:39:51.411Z,3.90
2017-09-10T16:42:19.015Z,7.80
2017-09-10T16:44:47.404Z,5.60
2017-09-10T16:47:15.080Z,4.03
2017-09-10T16:49:42.712Z,2.47
2017-09-10T16:52:10.349Z,6.20
2017-09-10T16:54:37.956Z,10.30
2017-09-10T16:57:05.792Z,4.63
2017-09-10T16:59:33.429Z,2.20
2017-09-10T17:02:01.067Z,10.03
2017-09-10T17:04:28.749Z,9.80
2017-09-10T17:06:56.360Z,5.60
2017-09-10T17:09:24.784Z,16.80
2017-09-10T17:11:52.433Z,3.23
2017-09-10T17:14:20.041Z,3.20
2017-09-10T17:16:48.470Z,5.33
2017-09-10T17:19:16.140Z,3.30
2017-09-10T17:21:43.745Z,3.40
2017-09-10T17:24:12.185Z,11.90
2017-09-10T17:26:39.789Z,5.60
2017-09-10T17:29:08.215Z,2.90
2017-09-10T17:31:36.653Z,3.37
2017-09-10T17:34:05.030Z,10.83
2017-09-10T17:36:33.468Z,15.83
2017-09-10T17:39:01.129Z,19.40
2017-09-10T17:41:29.435Z,12.00
2017-09-10T17:43:57.044Z,12.80
2017-09-10T17:46:24.734Z,9.33
2017-09-10T17:48:52.342Z,11.17
2017-09-10T17:51:20.753Z,4.30
2017-09-10T17:53:49.121Z,2.63
2017-09-10T17:56:16.728Z,8.47
2017-09-10T17:58:44.380Z,9.60
2017-09-10T18:01:12.040Z,11.40
2017-09-10T18:03:39.639Z,8.30
2017-09-10T18:06:07.268Z,10.53
2017-09-10T18:08:34.908Z,8.50
2017-09-10T18:11:02.584Z,12.20
2017-09-10T18:13:30.964Z,7.73
2017-09-10T18:15:59.444Z,8.13
2017-09-10T18:18:27.127Z,10.87
2017-09-10T18:20:54.732Z,9.30
2017-09-10T18:23:23.119Z,8.87
2017-09-10T18:25:51.498Z,9.50
2017-09-10T18:28:19.881Z,24.60
2017-09-10T18:30:47.585Z,12.50
2017-09-10T18:33:15.273Z,16.47
2017-09-10T18:35:42.931Z,14.57
2017-09-10T18:38:10.532Z,13.30
2017-09-10T18:40:38.232Z,15.23
2017-09-10T18:43:05.896Z,11.90
2017-09-10T18:45:33.505Z,15.43
2017-09-10T18:48:01.893Z,15.80
2017-09-10T18:50:30.316Z,14.10
2017-09-10T18:52:58.481Z,13.10
2017-09-10T18:55:26.874Z,12.93
2017-09-10T18:57:54.481Z,14.37
2017-09-10T19:00:23.254Z,10.10
2017-09-10T19:02:50.900Z,12.70
2017-09-10T19:05:18.509Z,16.53
2017-09-10T19:07:46.889Z,14.97
2017-09-10T19:10:15.309Z,17.30
2017-09-10T19:12:43.116Z,13.53
2017-09-10T19:15:11.800Z,11.20
2017-09-10T19:17:39.439Z,12.17
2017-09-10T19:20:07.091Z,12.70
2017-09-10T19:22:34.750Z,11.70
2017-09-10T19:25:02.357Z,9.97
2017-09-10T19:27:29.978Z,12.60
2017-09-10T19:29:57.594Z,10.43
2017-09-10T19:32:26.274Z,8.70
2017-09-10T19:34:54.006Z,12.00
2017-09-10T19:37:21.796Z,14.13
2017-09-10T19:39:50.372Z,12.17
2017-09-10T19:42:18.955Z,14.93
2017-09-10T19:44:46.833Z,9.37
2017-09-10T19:47:15.836Z,11.67
2017-09-10T19:49:44.290Z,15.37
2017-09-10T19:52:11.952Z,12.13
2017-09-10T19:54:39.578Z,10.70
2017-09-10T19:57:07.949Z,12.30
2017-09-10T19:59:36.391Z,11.53
2017-09-10T20:02:04.834Z,11.77
2017-09-10T20:04:32.495Z,10.20
2017-09-10T20:07:00.155Z,10.17
2017-09-10T20:09:28.631Z,10.43
2017-09-10T20:11:56.248Z,12.53
2017-09-10T20:14:23.895Z,9.43
2017-09-10T20:16:51.528Z,8.70
2017-09-10T20:19:19.170Z,9.20
2017-09-10T20:21:47.558Z,11.40
2017-09-10T20:24:15.201Z,12.97
2017-09-10T20:26:42.815Z,10.17
2017-09-10T20:29:10.429Z,10.33
2017-09-10T20:31:38.121Z,11.13
2017-09-10T20:34:05.732Z,11.67
2017-09-10T20:36:34.105Z,9.87
2017-09-10T20:39:01.826Z,20.13
2017-09-10T20:41:29.430Z,9.80
2017-09-10T20:43:57.074Z,10.67
2017-09-10T20:46:24.765Z,9.30
2017-09-10T20:48:53.138Z,12.83
2017-09-10T20:51:21.548Z,14.77
2017-09-10T20:53:49.963Z,11.20
2017-09-10T20:56:17.805Z,11.47
2017-09-10T20:58:45.475Z,10.30
2017-09-10T21:01:13.965Z,8.63
2017-09-10T21:03:41.569Z,7.40
2017-09-10T21:06:09.188Z,6.90
2017-09-10T21:08:37.602Z,8.30
2017-09-10T21:11:05.204Z,9.53
2017-09-10T21:13:32.809Z,7.33
2017-09-10T21:16:00.560Z,10.10
2017-09-10T21:18:28.161Z,9.73
2017-09-10T21:20:55.756Z,7.67
2017-09-10T21:23:23.453Z,10.50
2017-09-10T21:25:51.057Z,10.50
2017-09-10T21:28:19.479Z,11.70
2017-09-10T21:30:47.080Z,7.30
2017-09-10T21:33:14.684Z,13.13
2017-09-10T21:35:42.297Z,12.90
2017-09-10T21:38:09.906Z,10.60
2017-09-10T21:40:37.514Z,18.90
2017-09-10T21:43:05.126Z,24.50
2017-09-10T21:45:32.767Z,32.63
2017-09-10T21:48:01.209Z,31.87
2017-09-10T21:50:28.863Z,27.50
2017-09-10T21:52:56.487Z,29.70
2017-09-10T21:55:25.664Z,21.63
2017-09-10T21:57:53.396Z,35.70
2017-09-10T22:00:21.050Z,15.07
2017-09-10T22:02:48.717Z,23.63
2017-09-10T22:05:16.374Z,25.07
2017-09-10T22:07:44.017Z,21.43
2017-09-10T22:10:12.386Z,25.17
2017-09-10T22:12:40.040Z,19.30
2017-09-10T22:15:07.650Z,21.67
2017-09-10T22:17:36.790Z,17.83
2017-09-10T22:20:04.407Z,20.70
2017-09-10T22:22:32.015Z,25.93
2017-09-10T22:24:59.649Z,24.63
2017-09-10T22:27:27.298Z,19.10
2017-09-10T22:29:54.906Z,28.73
2017-09-10T22:32:22.514Z,16.13
2017-09-10T22:34:50.131Z,20.83
2017-09-10T22:37:17.773Z,27.70
2017-09-10T22:39:45.426Z,17.83
2017-09-10T22:42:13.028Z,22.83
2017-09-10T22:44:40.636Z,19.20
2017-09-10T22:47:08.246Z,15.80
2017-09-10T22:49:35.848Z,20.43
2017-09-10T22:52:03.488Z,16.67
2017-09-10T22:54:31.173Z,13.07
2017-09-10T22:56:58.785Z,13.27
2017-09-10T22:59:27.196Z,17.60
2017-09-10T23:01:54.798Z,16.40
2017-09-10T23:04:22.445Z,12.47
2017-09-10T23:06:50.053Z,22.90
2017-09-10T23:09:17.656Z,22.00
2017-09-10T23:11:46.060Z,20.97
2017-09-10T23:14:13.668Z,16.00
2017-09-10T23:16:41.316Z,16.67
2017-09-10T23:19:08.925Z,16.77
2017-09-10T23:21:36.531Z,14.57
2017-09-10T23:24:04.141Z,19.43
2017-09-10T23:26:32.539Z,12.60
2017-09-10T23:29:00.192Z,15.67
2017-09-10T23:31:27.861Z,22.60
2017-09-10T23:33:55.519Z,13.23
2017-09-10T23:36:23.164Z,16.53
2017-09-10T23:38:51.541Z,13.47
2017-09-10T23:41:19.916Z,16.70
2017-09-10T23:43:47.531Z,19.00
2017-09-10T23:46:15.164Z,11.67
2017-09-10T23:48:43.538Z,14.10
2017-09-10T23:51:11.904Z,9.80
2017-09-10T23:53:40.275Z,14.10
2017-09-10T23:56:07.881Z,10.97
2017-09-10T23:58:35.541Z,16.50
